sensor_id;sensor_type;location;lat;lon;timestamp;P1;durP1;ratioP1;P2;durP2;ratioP2
10191;SDS011;17580;50.850;4.504;2023-04-07T00:00:28;11.00;;;6.63;;
10191;SDS011;17580;50.850;4.504;2023-04-07T00:02:55;12.00;;;6.83;;
10191;SDS011;17580;50.850;4.504;2023-04-07T00:05:22;5.90;;;5.27;;
10191;SDS011;17580;50.850;4.504;2023-04-07T00:07:50;7.27;;;5.43;;
10191;SDS011;17580;50.850;4.504;2023-04-07T00:10:17;13.17;;;6.53;;
10191;SDS011;17580;50.850;4.504;2023-04-07T00:12:44;8.93;;;5.90;;
10191;SDS011;17580;50.850;4.504;2023-04-07T00:15:11;6.60;;;5.67;;
10191;SDS011;17580;50.850;4.504;2023-04-07T00:17:38;10.73;;;6.07;;
10191;SDS011;17580;50.850;4.504;2023-04-07T00:20:05;8.40;;;6.00;;
10191;SDS011;17580;50.850;4.504;2023-04-07T00:22:33;10.47;;;5.63;;
10191;SDS011;17580;50.850;4.504;2023-04-07T00:25:01;8.03;;;5.43;;
10191;SDS011;17580;50.850;4.504;2023-04-07T00:27:28;6.23;;;5.63;;
10191;SDS011;17580;50.850;4.504;2023-04-07T00:29:56;10.13;;;6.93;;
10191;SDS011;17580;50.850;4.504;2023-04-07T00:32:23;10.13;;;6.77;;
10191;SDS011;17580;50.850;4.504;2023-04-07T00:34:50;9.03;;;6.90;;
10191;SDS011;17580;50.850;4.504;2023-04-07T00:37:17;9.70;;;7.50;;
10191;SDS011;17580;50.850;4.504;2023-04-07T00:39:44;8.00;;;7.03;;
10191;SDS011;17580;50.850;4.504;2023-04-07T00:42:13;13.07;;;9.00;;
10191;SDS011;17580;50.850;4.504;2023-04-07T00:44:40;11.40;;;7.40;;
10191;SDS011;17580;50.850;4.504;2023-04-07T00:47:07;9.40;;;8.13;;
10191;SDS011;17580;50.850;4.504;2023-04-07T00:49:35;8.77;;;7.77;;
10191;SDS011;17580;50.850;4.504;2023-04-07T00:52:02;8.60;;;7.27;;
10191;SDS011;17580;50.850;4.504;2023-04-07T00:54:30;9.90;;;7.67;;
10191;SDS011;17580;50.850;4.504;2023-04-07T00:56:57;9.13;;;8.10;;
10191;SDS011;17580;50.850;4.504;2023-04-07T00:59:27;8.90;;;7.97;;
10191;SDS011;17580;50.850;4.504;2023-04-07T01:01:57;12.33;;;7.77;;
10191;SDS011;17580;50.850;4.504;2023-04-07T01:04:31;11.27;;;8.53;;
10191;SDS011;17580;50.850;4.504;2023-04-07T01:07:03;13.63;;;8.97;;
10191;SDS011;17580;50.850;4.504;2023-04-07T01:09:35;9.97;;;8.03;;
10191;SDS011;17580;50.850;4.504;2023-04-07T01:12:08;10.63;;;8.17;;
10191;SDS011;17580;50.850;4.504;2023-04-07T01:14:41;16.87;;;10.10;;
10191;SDS011;17580;50.850;4.504;2023-04-07T01:17:12;11.23;;;8.40;;
10191;SDS011;17580;50.850;4.504;2023-04-07T01:19:42;9.33;;;7.47;;
10191;SDS011;17580;50.850;4.504;2023-04-07T01:22:15;12.43;;;8.40;;
10191;SDS011;17580;50.850;4.504;2023-04-07T01:27:48;9.80;;;8.03;;
10191;SDS011;17580;50.850;4.504;2023-04-07T01:30:25;9.67;;;7.20;;
10191;SDS011;17580;50.850;4.504;2023-04-07T01:32:57;12.60;;;8.27;;
10191;SDS011;17580;50.850;4.504;2023-04-07T01:35:25;11.47;;;8.03;;
10191;SDS011;17580;50.850;4.504;2023-04-07T01:37:56;9.50;;;7.63;;
10191;SDS011;17580;50.850;4.504;2023-04-07T01:40:24;13.47;;;7.57;;
10191;SDS011;17580;50.850;4.504;2023-04-07T01:42:53;9.73;;;8.00;;
10191;SDS011;17580;50.850;4.504;2023-04-07T01:45:22;13.77;;;8.90;;
10191;SDS011;17580;50.850;4.504;2023-04-07T01:47:53;13.00;;;8.90;;
10191;SDS011;17580;50.850;4.504;2023-04-07T01:50:20;10.63;;;8.60;;
10191;SDS011;17580;50.850;4.504;2023-04-07T01:52:47;12.70;;;8.97;;
10191;SDS011;17580;50.850;4.504;2023-04-07T01:55:14;13.50;;;8.27;;
10191;SDS011;17580;50.850;4.504;2023-04-07T01:57:41;13.87;;;9.00;;
10191;SDS011;17580;50.850;4.504;2023-04-07T02:00:09;10.47;;;8.30;;
10191;SDS011;17580;50.850;4.504;2023-04-07T02:02:38;9.20;;;8.13;;
10191;SDS011;17580;50.850;4.504;2023-04-07T02:05:11;9.80;;;8.47;;
10191;SDS011;17580;50.850;4.504;2023-04-07T02:07:41;15.63;;;9.30;;
10191;SDS011;17580;50.850;4.504;2023-04-07T02:10:16;10.67;;;8.17;;
10191;SDS011;17580;50.850;4.504;2023-04-07T02:12:45;15.53;;;9.93;;
10191;SDS011;17580;50.850;4.504;2023-04-07T02:15:12;13.73;;;9.40;;
10191;SDS011;17580;50.850;4.504;2023-04-07T02:17:42;10.37;;;7.90;;
10191;SDS011;17580;50.850;4.504;2023-04-07T02:20:14;10.03;;;8.47;;
10191;SDS011;17580;50.850;4.504;2023-04-07T02:22:42;15.43;;;9.03;;
10191;SDS011;17580;50.850;4.504;2023-04-07T02:25:22;11.17;;;8.67;;
10191;SDS011;17580;50.850;4.504;2023-04-07T02:27:50;13.93;;;9.07;;
10191;SDS011;17580;50.850;4.504;2023-04-07T02:30:18;13.03;;;9.27;;
10191;SDS011;17580;50.850;4.504;2023-04-07T02:32:45;17.03;;;10.60;;
10191;SDS011;17580;50.850;4.504;2023-04-07T02:35:14;12.67;;;9.10;;
10191;SDS011;17580;50.850;4.504;2023-04-07T02:37:41;15.03;;;9.63;;
10191;SDS011;17580;50.850;4.504;2023-04-07T02:40:09;15.90;;;9.67;;
10191;SDS011;17580;50.850;4.504;2023-04-07T02:42:36;13.73;;;9.53;;
10191;SDS011;17580;50.850;4.504;2023-04-07T02:45:04;12.77;;;9.47;;
10191;SDS011;17580;50.850;4.504;2023-04-07T02:47:33;17.13;;;12.00;;
10191;SDS011;17580;50.850;4.504;2023-04-07T02:50:00;13.90;;;9.40;;
10191;SDS011;17580;50.850;4.504;2023-04-07T02:52:29;12.10;;;9.23;;
10191;SDS011;17580;50.850;4.504;2023-04-07T02:54:56;14.83;;;8.10;;
10191;SDS011;17580;50.850;4.504;2023-04-07T02:57:23;11.70;;;9.07;;
10191;SDS011;17580;50.850;4.504;2023-04-07T02:59:50;10.77;;;8.47;;
10191;SDS011;17580;50.850;4.504;2023-04-07T03:02:19;11.97;;;7.90;;
10191;SDS011;17580;50.850;4.504;2023-04-07T03:04:46;10.37;;;8.23;;
10191;SDS011;17580;50.850;4.504;2023-04-07T03:07:13;11.73;;;8.10;;
10191;SDS011;17580;50.850;4.504;2023-04-07T03:09:41;9.63;;;8.20;;
10191;SDS011;17580;50.850;4.504;2023-04-07T03:12:08;9.27;;;7.57;;
10191;SDS011;17580;50.850;4.504;2023-04-07T03:14:35;8.53;;;7.60;;
10191;SDS011;17580;50.850;4.504;2023-04-07T03:17:02;9.03;;;8.10;;
10191;SDS011;17580;50.850;4.504;2023-04-07T03:19:30;9.43;;;7.87;;
10191;SDS011;17580;50.850;4.504;2023-04-07T03:21:56;9.07;;;7.97;;
10191;SDS011;17580;50.850;4.504;2023-04-07T03:24:24;10.37;;;7.83;;
10191;SDS011;17580;50.850;4.504;2023-04-07T03:26:52;14.77;;;8.63;;
10191;SDS011;17580;50.850;4.504;2023-04-07T03:29:20;11.70;;;8.17;;
10191;SDS011;17580;50.850;4.504;2023-04-07T03:31:47;11.90;;;7.90;;
10191;SDS011;17580;50.850;4.504;2023-04-07T03:34:14;11.87;;;8.93;;
10191;SDS011;17580;50.850;4.504;2023-04-07T03:36:41;12.20;;;8.50;;
10191;SDS011;17580;50.850;4.504;2023-04-07T03:39:08;10.87;;;7.70;;
10191;SDS011;17580;50.850;4.504;2023-04-07T03:41:35;10.37;;;8.37;;
10191;SDS011;17580;50.850;4.504;2023-04-07T03:44:03;13.30;;;8.47;;
10191;SDS011;17580;50.850;4.504;2023-04-07T03:46:31;13.53;;;9.57;;
10191;SDS011;17580;50.850;4.504;2023-04-07T03:48:58;15.70;;;9.00;;
10191;SDS011;17580;50.850;4.504;2023-04-07T03:51:25;13.33;;;8.77;;
10191;SDS011;17580;50.850;4.504;2023-04-07T03:53:52;14.77;;;10.10;;
10191;SDS011;17580;50.850;4.504;2023-04-07T03:56:19;19.30;;;9.83;;
10191;SDS011;17580;50.850;4.504;2023-04-07T03:58:46;13.77;;;8.97;;
10191;SDS011;17580;50.850;4.504;2023-04-07T04:01:15;17.17;;;10.17;;
10191;SDS011;17580;50.850;4.504;2023-04-07T04:03:42;17.13;;;9.63;;
10191;SDS011;17580;50.850;4.504;2023-04-07T04:06:09;16.73;;;10.03;;
10191;SDS011;17580;50.850;4.504;2023-04-07T04:08:36;22.73;;;10.37;;
10191;SDS011;17580;50.850;4.504;2023-04-07T04:11:03;21.50;;;10.67;;
10191;SDS011;17580;50.850;4.504;2023-04-07T04:13:30;20.13;;;10.63;;
10191;SDS011;17580;50.850;4.504;2023-04-07T04:15:57;18.53;;;10.13;;
10191;SDS011;17580;50.850;4.504;2023-04-07T04:18:25;20.63;;;10.60;;
10191;SDS011;17580;50.850;4.504;2023-04-07T04:20:52;20.23;;;10.03;;
10191;SDS011;17580;50.850;4.504;2023-04-07T04:23:19;17.20;;;10.17;;
10191;SDS011;17580;50.850;4.504;2023-04-07T04:25:46;21.73;;;10.67;;
10191;SDS011;17580;50.850;4.504;2023-04-07T04:28:13;16.50;;;9.50;;
10191;SDS011;17580;50.850;4.504;2023-04-07T04:30:40;20.33;;;10.20;;
10191;SDS011;17580;50.850;4.504;2023-04-07T04:33:07;19.70;;;9.80;;
10191;SDS011;17580;50.850;4.504;2023-04-07T04:35:36;21.27;;;9.83;;
10191;SDS011;17580;50.850;4.504;2023-04-07T04:38:03;15.70;;;10.33;;
10191;SDS011;17580;50.850;4.504;2023-04-07T04:40:30;16.57;;;9.10;;
10191;SDS011;17580;50.850;4.504;2023-04-07T04:42:57;18.83;;;10.00;;
10191;SDS011;17580;50.850;4.504;2023-04-07T04:45:24;16.90;;;10.10;;
10191;SDS011;17580;50.850;4.504;2023-04-07T04:47:51;14.03;;;8.53;;
10191;SDS011;17580;50.850;4.504;2023-04-07T04:50:18;13.40;;;8.83;;
10191;SDS011;17580;50.850;4.504;2023-04-07T04:52:47;14.33;;;9.47;;
10191;SDS011;17580;50.850;4.504;2023-04-07T04:55:14;16.50;;;10.07;;
10191;SDS011;17580;50.850;4.504;2023-04-07T04:57:41;16.27;;;9.50;;
10191;SDS011;17580;50.850;4.504;2023-04-07T05:00:08;20.47;;;9.43;;
10191;SDS011;17580;50.850;4.504;2023-04-07T05:02:36;17.60;;;10.57;;
10191;SDS011;17580;50.850;4.504;2023-04-07T05:05:03;15.23;;;9.77;;
10191;SDS011;17580;50.850;4.504;2023-04-07T05:07:31;12.70;;;9.10;;
10191;SDS011;17580;50.850;4.504;2023-04-07T05:09:59;15.73;;;10.82;;
10191;SDS011;17580;50.850;4.504;2023-04-07T05:12:26;14.77;;;9.37;;
10191;SDS011;17580;50.850;4.504;2023-04-07T05:14:53;15.93;;;10.07;;
10191;SDS011;17580;50.850;4.504;2023-04-07T05:17:20;14.17;;;9.47;;
10191;SDS011;17580;50.850;4.504;2023-04-07T05:19:47;16.53;;;9.80;;
10191;SDS011;17580;50.850;4.504;2023-04-07T05:22:14;14.20;;;9.23;;
10191;SDS011;17580;50.850;4.504;2023-04-07T05:24:41;12.53;;;8.70;;
10191;SDS011;17580;50.850;4.504;2023-04-07T05:27:10;16.00;;;10.80;;
10191;SDS011;17580;50.850;4.504;2023-04-07T05:29:36;17.93;;;10.93;;
10191;SDS011;17580;50.850;4.504;2023-04-07T05:32:03;19.87;;;10.37;;
10191;SDS011;17580;50.850;4.504;2023-04-07T05:34:31;15.07;;;10.47;;
10191;SDS011;17580;50.850;4.504;2023-04-07T05:36:57;18.03;;;11.80;;
10191;SDS011;17580;50.850;4.504;2023-04-07T05:39:24;17.40;;;9.47;;
10191;SDS011;17580;50.850;4.504;2023-04-07T05:41:51;15.47;;;9.67;;
10191;SDS011;17580;50.850;4.504;2023-04-07T05:44:20;19.27;;;9.97;;
10191;SDS011;17580;50.850;4.504;2023-04-07T05:46:47;21.77;;;11.70;;
10191;SDS011;17580;50.850;4.504;2023-04-07T05:49:14;19.87;;;11.07;;
10191;SDS011;17580;50.850;4.504;2023-04-07T05:51:41;21.07;;;11.33;;
10191;SDS011;17580;50.850;4.504;2023-04-07T05:54:08;19.97;;;12.43;;
10191;SDS011;17580;50.850;4.504;2023-04-07T05:56:35;19.13;;;12.60;;
10191;SDS011;17580;50.850;4.504;2023-04-07T05:59:02;20.67;;;10.83;;
10191;SDS011;17580;50.850;4.504;2023-04-07T06:01:30;15.27;;;10.20;;
10191;SDS011;17580;50.850;4.504;2023-04-07T06:03:57;17.37;;;10.73;;
10191;SDS011;17580;50.850;4.504;2023-04-07T06:06:25;17.47;;;9.97;;
10191;SDS011;17580;50.850;4.504;2023-04-07T06:08:52;17.67;;;11.20;;
10191;SDS011;17580;50.850;4.504;2023-04-07T06:11:19;19.03;;;11.43;;
10191;SDS011;17580;50.850;4.504;2023-04-07T06:13:47;20.10;;;11.77;;
10191;SDS011;17580;50.850;4.504;2023-04-07T06:16:14;22.53;;;12.27;;
10191;SDS011;17580;50.850;4.504;2023-04-07T06:18:42;16.37;;;10.60;;
10191;SDS011;17580;50.850;4.504;2023-04-07T06:21:10;20.03;;;11.40;;
10191;SDS011;17580;50.850;4.504;2023-04-07T06:23:37;22.90;;;13.13;;
10191;SDS011;17580;50.850;4.504;2023-04-07T06:26:04;17.17;;;9.93;;
10191;SDS011;17580;50.850;4.504;2023-04-07T06:28:31;18.97;;;11.87;;
10191;SDS011;17580;50.850;4.504;2023-04-07T06:30:58;17.07;;;10.87;;
10191;SDS011;17580;50.850;4.504;2023-04-07T06:33:25;17.63;;;12.63;;
10191;SDS011;17580;50.850;4.504;2023-04-07T06:35:54;21.00;;;11.60;;
10191;SDS011;17580;50.850;4.504;2023-04-07T06:38:22;16.63;;;11.17;;
10191;SDS011;17580;50.850;4.504;2023-04-07T06:40:49;17.10;;;10.93;;
10191;SDS011;17580;50.850;4.504;2023-04-07T06:43:17;17.50;;;11.23;;
10191;SDS011;17580;50.850;4.504;2023-04-07T06:45:44;17.67;;;10.37;;
10191;SDS011;17580;50.850;4.504;2023-04-07T06:48:11;22.53;;;11.33;;
10191;SDS011;17580;50.850;4.504;2023-04-07T06:50:38;18.47;;;10.83;;
10191;SDS011;17580;50.850;4.504;2023-04-07T06:53:06;18.13;;;10.97;;
10191;SDS011;17580;50.850;4.504;2023-04-07T06:55:33;25.23;;;12.90;;
10191;SDS011;17580;50.850;4.504;2023-04-07T06:58:00;19.33;;;11.73;;
10191;SDS011;17580;50.850;4.504;2023-04-07T07:00:27;21.67;;;11.77;;
10191;SDS011;17580;50.850;4.504;2023-04-07T07:02:55;18.07;;;11.80;;
10191;SDS011;17580;50.850;4.504;2023-04-07T07:05:22;17.20;;;11.63;;
10191;SDS011;17580;50.850;4.504;2023-04-07T07:07:49;12.33;;;10.13;;
10191;SDS011;17580;50.850;4.504;2023-04-07T07:10:18;14.27;;;9.77;;
10191;SDS011;17580;50.850;4.504;2023-04-07T07:12:46;13.57;;;9.77;;
10191;SDS011;17580;50.850;4.504;2023-04-07T07:15:13;14.93;;;10.20;;
10191;SDS011;17580;50.850;4.504;2023-04-07T07:17:41;13.47;;;10.20;;
10191;SDS011;17580;50.850;4.504;2023-04-07T07:20:08;15.90;;;9.60;;
10191;SDS011;17580;50.850;4.504;2023-04-07T07:22:36;10.47;;;9.23;;
10191;SDS011;17580;50.850;4.504;2023-04-07T07:25:03;14.17;;;10.63;;
10191;SDS011;17580;50.850;4.504;2023-04-07T07:27:32;10.67;;;8.87;;
10191;SDS011;17580;50.850;4.504;2023-04-07T07:29:59;15.47;;;11.40;;
10191;SDS011;17580;50.850;4.504;2023-04-07T07:32:26;11.00;;;9.17;;
10191;SDS011;17580;50.850;4.504;2023-04-07T07:34:53;12.80;;;10.10;;
10191;SDS011;17580;50.850;4.504;2023-04-07T07:37:20;12.80;;;8.50;;
10191;SDS011;17580;50.850;4.504;2023-04-07T07:39:47;12.37;;;9.03;;
10191;SDS011;17580;50.850;4.504;2023-04-07T07:42:14;14.73;;;8.80;;
10191;SDS011;17580;50.850;4.504;2023-04-07T07:44:42;16.80;;;10.47;;
10191;SDS011;17580;50.850;4.504;2023-04-07T07:47:09;12.70;;;7.90;;
10191;SDS011;17580;50.850;4.504;2023-04-07T07:49:36;12.77;;;8.30;;
10191;SDS011;17580;50.850;4.504;2023-04-07T07:52:04;11.73;;;8.60;;
10191;SDS011;17580;50.850;4.504;2023-04-07T07:54:30;9.53;;;6.43;;
10191;SDS011;17580;50.850;4.504;2023-04-07T07:56:57;10.63;;;7.57;;
10191;SDS011;17580;50.850;4.504;2023-04-07T07:59:24;10.97;;;7.13;;
10191;SDS011;17580;50.850;4.504;2023-04-07T08:01:53;9.23;;;7.10;;
10191;SDS011;17580;50.850;4.504;2023-04-07T08:04:20;11.37;;;7.37;;
10191;SDS011;17580;50.850;4.504;2023-04-07T08:06:47;10.70;;;6.07;;
10191;SDS011;17580;50.850;4.504;2023-04-07T08:09:14;10.73;;;7.67;;
10191;SDS011;17580;50.850;4.504;2023-04-07T08:11:41;8.17;;;6.90;;
10191;SDS011;17580;50.850;4.504;2023-04-07T08:14:09;7.23;;;5.67;;
10191;SDS011;17580;50.850;4.504;2023-04-07T08:16:36;11.50;;;7.10;;
10191;SDS011;17580;50.850;4.504;2023-04-07T08:19:04;7.73;;;6.03;;
10191;SDS011;17580;50.850;4.504;2023-04-07T08:21:31;6.70;;;6.00;;
10191;SDS011;17580;50.850;4.504;2023-04-07T08:23:58;10.23;;;7.17;;
10191;SDS011;17580;50.850;4.504;2023-04-07T08:26:26;8.27;;;5.63;;
10191;SDS011;17580;50.850;4.504;2023-04-07T08:28:53;8.57;;;6.60;;
10191;SDS011;17580;50.850;4.504;2023-04-07T08:31:20;7.87;;;5.70;;
10191;SDS011;17580;50.850;4.504;2023-04-07T08:33:47;11.83;;;7.17;;
10191;SDS011;17580;50.850;4.504;2023-04-07T08:36:23;8.17;;;5.97;;
10191;SDS011;17580;50.850;4.504;2023-04-07T08:38:50;11.50;;;6.80;;
10191;SDS011;17580;50.850;4.504;2023-04-07T08:41:20;6.17;;;5.37;;
10191;SDS011;17580;50.850;4.504;2023-04-07T08:43:54;5.83;;;4.80;;
10191;SDS011;17580;50.850;4.504;2023-04-07T08:46:23;10.43;;;5.90;;
10191;SDS011;17580;50.850;4.504;2023-04-07T08:48:51;5.80;;;4.57;;
10191;SDS011;17580;50.850;4.504;2023-04-07T08:51:23;7.00;;;4.90;;
10191;SDS011;17580;50.850;4.504;2023-04-07T08:53:57;7.13;;;5.07;;
10191;SDS011;17580;50.850;4.504;2023-04-07T08:56:31;11.37;;;4.60;;
10191;SDS011;17580;50.850;4.504;2023-04-07T08:58:59;4.40;;;4.10;;
10191;SDS011;17580;50.850;4.504;2023-04-07T09:01:26;4.23;;;3.70;;
10191;SDS011;17580;50.850;4.504;2023-04-07T09:03:55;6.37;;;4.07;;
10191;SDS011;17580;50.850;4.504;2023-04-07T09:06:23;6.93;;;3.90;;
10191;SDS011;17580;50.850;4.504;2023-04-07T09:08:52;4.10;;;3.70;;
10191;SDS011;17580;50.850;4.504;2023-04-07T09:11:19;5.93;;;3.93;;
10191;SDS011;17580;50.850;4.504;2023-04-07T09:13:48;7.33;;;4.20;;
10191;SDS011;17580;50.850;4.504;2023-04-07T09:16:15;5.43;;;3.27;;
10191;SDS011;17580;50.850;4.504;2023-04-07T09:18:43;3.17;;;2.90;;
10191;SDS011;17580;50.850;4.504;2023-04-07T09:21:10;3.07;;;2.83;;
10191;SDS011;17580;50.850;4.504;2023-04-07T09:23:37;3.33;;;3.10;;
10191;SDS011;17580;50.850;4.504;2023-04-07T09:26:19;6.10;;;3.17;;
10191;SDS011;17580;50.850;4.504;2023-04-07T09:28:49;5.17;;;2.73;;
10191;SDS011;17580;50.850;4.504;2023-04-07T09:31:18;3.13;;;2.87;;
10191;SDS011;17580;50.850;4.504;2023-04-07T09:33:46;6.50;;;3.63;;
10191;SDS011;17580;50.850;4.504;2023-04-07T09:36:14;7.17;;;2.87;;
10191;SDS011;17580;50.850;4.504;2023-04-07T09:38:42;2.93;;;2.60;;
10191;SDS011;17580;50.850;4.504;2023-04-07T09:41:11;3.00;;;2.87;;
10191;SDS011;17580;50.850;4.504;2023-04-07T09:43:41;2.50;;;2.20;;
10191;SDS011;17580;50.850;4.504;2023-04-07T09:46:10;2.90;;;1.90;;
10191;SDS011;17580;50.850;4.504;2023-04-07T09:48:39;2.57;;;1.90;;
10191;SDS011;17580;50.850;4.504;2023-04-07T09:51:08;4.93;;;2.07;;
10191;SDS011;17580;50.850;4.504;2023-04-07T09:53:40;3.03;;;2.10;;
10191;SDS011;17580;50.850;4.504;2023-04-07T09:56:13;6.10;;;2.03;;
10191;SDS011;17580;50.850;4.504;2023-04-07T09:58:43;2.13;;;1.93;;
10191;SDS011;17580;50.850;4.504;2023-04-07T10:01:12;2.80;;;2.10;;
10191;SDS011;17580;50.850;4.504;2023-04-07T10:03:40;3.23;;;2.17;;
10191;SDS011;17580;50.850;4.504;2023-04-07T10:06:08;4.30;;;1.97;;
10191;SDS011;17580;50.850;4.504;2023-04-07T10:08:36;2.43;;;2.23;;
10191;SDS011;17580;50.850;4.504;2023-04-07T10:11:05;3.50;;;2.03;;
10191;SDS011;17580;50.850;4.504;2023-04-07T10:13:33;4.13;;;2.03;;
10191;SDS011;17580;50.850;4.504;2023-04-07T10:16:03;2.63;;;1.80;;
10191;SDS011;17580;50.850;4.504;2023-04-07T10:18:32;2.00;;;1.80;;
10191;SDS011;17580;50.850;4.504;2023-04-07T10:21:00;2.50;;;1.57;;
10191;SDS011;17580;50.850;4.504;2023-04-07T10:23:31;2.20;;;1.77;;
10191;SDS011;17580;50.850;4.504;2023-04-07T10:26:09;1.60;;;1.50;;
10191;SDS011;17580;50.850;4.504;2023-04-07T10:28:37;2.57;;;1.50;;
10191;SDS011;17580;50.850;4.504;2023-04-07T10:31:08;4.47;;;2.03;;
10191;SDS011;17580;50.850;4.504;2023-04-07T10:36:21;3.10;;;1.40;;
10191;SDS011;17580;50.850;4.504;2023-04-07T10:41:51;1.63;;;1.27;;
10191;SDS011;17580;50.850;4.504;2023-04-07T10:47:33;2.83;;;1.50;;
10191;SDS011;17580;50.850;4.504;2023-04-07T10:50:17;2.33;;;1.63;;
10191;SDS011;17580;50.850;4.504;2023-04-07T10:52:46;3.20;;;1.67;;
10191;SDS011;17580;50.850;4.504;2023-04-07T10:55:29;1.67;;;1.40;;
10191;SDS011;17580;50.850;4.504;2023-04-07T10:58:14;2.70;;;1.47;;
10191;SDS011;17580;50.850;4.504;2023-04-07T11:03:57;2.50;;;1.13;;
10191;SDS011;17580;50.850;4.504;2023-04-07T11:06:25;2.57;;;1.50;;
10191;SDS011;17580;50.850;4.504;2023-04-07T11:08:52;3.07;;;1.60;;
10191;SDS011;17580;50.850;4.504;2023-04-07T11:11:21;2.60;;;1.37;;
10191;SDS011;17580;50.850;4.504;2023-04-07T11:14:05;2.03;;;1.53;;
10191;SDS011;17580;50.850;4.504;2023-04-07T11:16:39;3.83;;;1.63;;
10191;SDS011;17580;50.850;4.504;2023-04-07T11:19:08;5.13;;;1.63;;
10191;SDS011;17580;50.850;4.504;2023-04-07T11:21:36;4.17;;;2.17;;
10191;SDS011;17580;50.850;4.504;2023-04-07T11:24:03;2.63;;;1.90;;
10191;SDS011;17580;50.850;4.504;2023-04-07T11:26:35;4.47;;;2.33;;
10191;SDS011;17580;50.850;4.504;2023-04-07T11:29:04;2.87;;;1.90;;
10191;SDS011;17580;50.850;4.504;2023-04-07T11:31:31;4.10;;;2.10;;
10191;SDS011;17580;50.850;4.504;2023-04-07T11:33:58;3.83;;;2.20;;
10191;SDS011;17580;50.850;4.504;2023-04-07T11:36:28;5.47;;;2.37;;
10191;SDS011;17580;50.850;4.504;2023-04-07T11:38:56;5.63;;;2.30;;
10191;SDS011;17580;50.850;4.504;2023-04-07T11:41:24;8.67;;;2.33;;
10191;SDS011;17580;50.850;4.504;2023-04-07T11:44:04;7.17;;;2.40;;
10191;SDS011;17580;50.850;4.504;2023-04-07T11:46:32;2.60;;;1.80;;
10191;SDS011;17580;50.850;4.504;2023-04-07T11:49:10;10.33;;;2.10;;
10191;SDS011;17580;50.850;4.504;2023-04-07T11:51:42;8.67;;;3.10;;
10191;SDS011;17580;50.850;4.504;2023-04-07T11:54:11;5.93;;;2.53;;
10191;SDS011;17580;50.850;4.504;2023-04-07T11:56:42;5.73;;;2.27;;
10191;SDS011;17580;50.850;4.504;2023-04-07T11:59:17;5.00;;;2.23;;
10191;SDS011;17580;50.850;4.504;2023-04-07T12:01:47;6.17;;;2.83;;
10191;SDS011;17580;50.850;4.504;2023-04-07T12:04:14;6.57;;;2.83;;
10191;SDS011;17580;50.850;4.504;2023-04-07T12:06:43;3.70;;;2.50;;
10191;SDS011;17580;50.850;4.504;2023-04-07T12:09:24;6.27;;;2.17;;
10191;SDS011;17580;50.850;4.504;2023-04-07T12:11:53;4.43;;;2.10;;
10191;SDS011;17580;50.850;4.504;2023-04-07T12:14:21;2.87;;;2.10;;
10191;SDS011;17580;50.850;4.504;2023-04-07T12:16:48;6.47;;;2.10;;
10191;SDS011;17580;50.850;4.504;2023-04-07T12:19:15;5.30;;;2.20;;
10191;SDS011;17580;50.850;4.504;2023-04-07T12:21:43;8.00;;;2.67;;
10191;SDS011;17580;50.850;4.504;2023-04-07T12:24:10;3.17;;;2.03;;
10191;SDS011;17580;50.850;4.504;2023-04-07T12:26:37;5.83;;;2.43;;
10191;SDS011;17580;50.850;4.504;2023-04-07T12:29:04;5.63;;;2.27;;
10191;SDS011;17580;50.850;4.504;2023-04-07T12:31:31;5.20;;;2.20;;
10191;SDS011;17580;50.850;4.504;2023-04-07T12:33:58;3.80;;;2.57;;
10191;SDS011;17580;50.850;4.504;2023-04-07T12:36:25;5.83;;;1.80;;
10191;SDS011;17580;50.850;4.504;2023-04-07T12:38:54;2.20;;;1.50;;
10191;SDS011;17580;50.850;4.504;2023-04-07T12:41:23;3.30;;;1.90;;
10191;SDS011;17580;50.850;4.504;2023-04-07T12:43:50;1.40;;;1.30;;
10191;SDS011;17580;50.850;4.504;2023-04-07T12:46:18;2.03;;;1.30;;
10191;SDS011;17580;50.850;4.504;2023-04-07T12:48:45;7.20;;;2.10;;
10191;SDS011;17580;50.850;4.504;2023-04-07T12:51:13;2.13;;;1.30;;
10191;SDS011;17580;50.850;4.504;2023-04-07T12:53:40;2.13;;;1.80;;
10191;SDS011;17580;50.850;4.504;2023-04-07T12:56:08;4.53;;;1.93;;
10191;SDS011;17580;50.850;4.504;2023-04-07T12:58:37;4.07;;;1.93;;
10191;SDS011;17580;50.850;4.504;2023-04-07T13:01:04;2.37;;;2.13;;
10191;SDS011;17580;50.850;4.504;2023-04-07T13:03:31;3.07;;;2.20;;
10191;SDS011;17580;50.850;4.504;2023-04-07T13:05:58;4.97;;;2.70;;
10191;SDS011;17580;50.850;4.504;2023-04-07T13:08:25;6.10;;;2.97;;
10191;SDS011;17580;50.850;4.504;2023-04-07T13:10:53;2.40;;;2.10;;
10191;SDS011;17580;50.850;4.504;2023-04-07T13:13:21;2.47;;;2.23;;
10191;SDS011;17580;50.850;4.504;2023-04-07T13:15:49;4.03;;;2.00;;
10191;SDS011;17580;50.850;4.504;2023-04-07T13:18:16;2.10;;;1.33;;
10191;SDS011;17580;50.850;4.504;2023-04-07T13:20:43;2.50;;;1.40;;
10191;SDS011;17580;50.850;4.504;2023-04-07T13:23:10;5.17;;;2.00;;
10191;SDS011;17580;50.850;4.504;2023-04-07T13:25:37;3.27;;;1.80;;
10191;SDS011;17580;50.850;4.504;2023-04-07T13:28:04;3.50;;;1.80;;
10191;SDS011;17580;50.850;4.504;2023-04-07T13:30:32;3.23;;;1.60;;
10191;SDS011;17580;50.850;4.504;2023-04-07T13:32:59;3.97;;;1.90;;
10191;SDS011;17580;50.850;4.504;2023-04-07T13:35:26;4.37;;;2.27;;
10191;SDS011;17580;50.850;4.504;2023-04-07T13:37:54;2.30;;;1.77;;
10191;SDS011;17580;50.850;4.504;2023-04-07T13:40:21;5.23;;;2.43;;
10191;SDS011;17580;50.850;4.504;2023-04-07T13:42:48;4.23;;;2.43;;
10191;SDS011;17580;50.850;4.504;2023-04-07T13:45:15;3.90;;;2.23;;
10191;SDS011;17580;50.850;4.504;2023-04-07T13:47:43;2.37;;;1.67;;
10191;SDS011;17580;50.850;4.504;2023-04-07T13:50:10;2.70;;;1.43;;
10191;SDS011;17580;50.850;4.504;2023-04-07T13:52:37;4.03;;;1.80;;
10191;SDS011;17580;50.850;4.504;2023-04-07T13:55:04;6.63;;;2.20;;
10191;SDS011;17580;50.850;4.504;2023-04-07T13:57:32;5.67;;;1.83;;
10191;SDS011;17580;50.850;4.504;2023-04-07T13:59:59;3.40;;;2.20;;
10191;SDS011;17580;50.850;4.504;2023-04-07T14:02:26;4.07;;;1.83;;
10191;SDS011;17580;50.850;4.504;2023-04-07T14:04:55;1.90;;;1.57;;
10191;SDS011;17580;50.850;4.504;2023-04-07T14:07:22;1.60;;;1.50;;
10191;SDS011;17580;50.850;4.504;2023-04-07T14:09:49;6.97;;;2.27;;
10191;SDS011;17580;50.850;4.504;2023-04-07T14:12:18;4.87;;;2.20;;
10191;SDS011;17580;50.850;4.504;2023-04-07T14:14:46;1.90;;;1.80;;
10191;SDS011;17580;50.850;4.504;2023-04-07T14:17:14;7.57;;;2.20;;
10191;SDS011;17580;50.850;4.504;2023-04-07T14:19:42;3.80;;;1.87;;
10191;SDS011;17580;50.850;4.504;2023-04-07T14:22:10;3.97;;;2.07;;
10191;SDS011;17580;50.850;4.504;2023-04-07T14:24:38;3.30;;;2.53;;
10191;SDS011;17580;50.850;4.504;2023-04-07T14:27:04;4.07;;;2.43;;
10191;SDS011;17580;50.850;4.504;2023-04-07T14:29:31;3.47;;;1.90;;
10191;SDS011;17580;50.850;4.504;2023-04-07T14:31:58;3.37;;;1.67;;
10191;SDS011;17580;50.850;4.504;2023-04-07T14:34:25;1.40;;;1.30;;
10191;SDS011;17580;50.850;4.504;2023-04-07T14:36:52;1.50;;;1.40;;
10191;SDS011;17580;50.850;4.504;2023-04-07T14:39:21;2.57;;;1.43;;
10191;SDS011;17580;50.850;4.504;2023-04-07T14:41:48;2.93;;;1.63;;
10191;SDS011;17580;50.850;4.504;2023-04-07T14:44:15;4.13;;;1.93;;
10191;SDS011;17580;50.850;4.504;2023-04-07T14:46:42;3.50;;;1.83;;
10191;SDS011;17580;50.850;4.504;2023-04-07T14:49:09;3.50;;;1.80;;
10191;SDS011;17580;50.850;4.504;2023-04-07T14:51:37;2.90;;;1.67;;
10191;SDS011;17580;50.850;4.504;2023-04-07T14:54:04;4.00;;;1.80;;
10191;SDS011;17580;50.850;4.504;2023-04-07T14:56:33;2.67;;;1.50;;
10191;SDS011;17580;50.850;4.504;2023-04-07T14:59:00;2.50;;;1.70;;